aviador You're here:

KLIC Decoded Metar

LIMON in CO, USA
Report Time2017-06-29 11:55:00
UTC Time2017-06-29 12:32:29
Flight Rules vfr VFR
Wind280° at 03 kt
W.Decomp.*RWY 34: 1.0 kt HW 2.8 kt LCW
W.Rank280° ranks 18
Current wind is below 280° avg. (7.3)
Visibility9999 m
Phenomena:N/A
Clouds:N/A
Expected CloudBase > 400 ft AGL from Temp-Dew spread
CeilingNone
Temp10°C (ISA +6)
Dew Point09°C (94% RH)
AAT8.7°C
QNH1014 hPa
Density Alt6,148 ft
Elevation5,348 ft
Report Wrong Elevation
Raw Report
METAR KLIC 291155Z AUTO 28003KT 10SM CLR 10/09 A2995 RMK AO2 SLP068
70009 T01000094 10172 20089 53011=

Extra information for KLIC:More info

Metar Taf Metar & Taf Last 4 Metars F.Rules Stats Wind Profile Meteogram Temp Stats Airport Information Weather charts Add Link Nearby VenuesMetar ALERT Operation Metar Decoded Social comments

AIRNAV info for KLIC